SWR1365 EPPO-LSZH
Flight info
| Callsign | SWR1365 |
|---|---|
| Flight time | N/A |
| Altitude | 40000 |
| Route | ERNOX P861 RASAN DCT ASTEL DCT OKG N869 KEGOS/N0454F300 N869 TEDGO/N0454F310 T724 RILAX |
| Aircraft | E190/M-SDE3GILORVW/S |
Departure
| Time | 2026-05-04 18:02 |
|---|---|
| Airport | Poznań-Ławica Airport (EPPO) |
Arrival
| Time | N/A |
|---|---|
| Airport | Zürich Airport (LSZH) |
| Time | Latitude | Longitude | Altitude | Speed | Heading |
|---|---|---|---|---|---|
| 2026-05-04 17:44 | 52.41567 | 16.83129 | 300 ft | 0 kts | 195° |
| 2026-05-04 17:55 | 52.41568 | 16.83129 | 303 ft | 1 kts | 195° |
| 2026-05-04 17:55 | 52.41584 | 16.83135 | 300 ft | 3 kts | 182° |
| 2026-05-04 17:55 | 52.41604 | 16.83133 | 302 ft | 3 kts | 164° |
| 2026-05-04 17:56 | 52.41621 | 16.83124 | 302 ft | 2 kts | 157° |
| 2026-05-04 17:56 | 52.41625 | 16.83121 | 302 ft | 1 kts | 157° |
| 2026-05-04 17:56 | 52.41626 | 16.83120 | 302 ft | 0 kts | 157° |
| 2026-05-04 17:58 | 52.41621 | 16.83128 | 301 ft | 2 kts | 135° |
| 2026-05-04 17:59 | 52.41620 | 16.83154 | 302 ft | 3 kts | 90° |
| 2026-05-04 17:59 | 52.41615 | 16.83221 | 300 ft | 9 kts | 99° |
| 2026-05-04 17:59 | 52.41579 | 16.83494 | 301 ft | 15 kts | 101° |
| 2026-05-04 18:00 | 52.41569 | 16.83680 | 301 ft | 18 kts | 93° |
| 2026-05-04 18:00 | 52.41576 | 16.83879 | 299 ft | 18 kts | 63° |
| 2026-05-04 18:00 | 52.41663 | 16.83991 | 298 ft | 15 kts | 21° |
| 2026-05-04 18:00 | 52.41763 | 16.84059 | 297 ft | 16 kts | 20° |
| 2026-05-04 18:01 | 52.41828 | 16.84064 | 298 ft | 3 kts | 288° |
| 2026-05-04 18:01 | 52.41836 | 16.84016 | 297 ft | 6 kts | 288° |
| 2026-05-04 18:01 | 52.41909 | 16.83640 | 300 ft | 73 kts | 285° |
| 2026-05-04 18:02 | 52.42512 | 16.80627 | 640 ft | 187 kts | 289° |
| 2026-05-04 18:02 | 52.42929 | 16.78402 | 1181 ft | 223 kts | 288° |
| 2026-05-04 18:02 | 52.43390 | 16.75904 | 2157 ft | 224 kts | 288° |
| 2026-05-04 18:02 | 52.43849 | 16.73504 | 3263 ft | 221 kts | 287° |
| 2026-05-04 18:03 | 52.44315 | 16.71089 | 4181 ft | 222 kts | 286° |
| 2026-05-04 18:03 | 52.44784 | 16.68656 | 5055 ft | 224 kts | 285° |
| 2026-05-04 18:03 | 52.45257 | 16.66201 | 5901 ft | 226 kts | 284° |
| 2026-05-04 18:03 | 52.45728 | 16.63741 | 6671 ft | 227 kts | 284° |
| 2026-05-04 18:04 | 52.46201 | 16.61253 | 7409 ft | 229 kts | 284° |
| 2026-05-04 18:04 | 52.46676 | 16.58751 | 8094 ft | 231 kts | 284° |
| 2026-05-04 18:04 | 52.47483 | 16.53631 | 9425 ft | 232 kts | 268° |
| 2026-05-04 18:05 | 52.47155 | 16.51072 | 10057 ft | 231 kts | 245° |
| 2026-05-04 18:05 | 52.46252 | 16.48931 | 10671 ft | 234 kts | 226° |
| 2026-05-04 18:05 | 52.44896 | 16.47419 | 11292 ft | 240 kts | 207° |
| 2026-05-04 18:05 | 52.43377 | 16.46282 | 11905 ft | 241 kts | 215° |
| 2026-05-04 18:06 | 52.40415 | 16.43057 | 12832 ft | 280 kts | 216° |
| 2026-05-04 18:06 | 52.38718 | 16.41183 | 13188 ft | 305 kts | 216° |
| 2026-05-04 18:06 | 52.36924 | 16.39223 | 14002 ft | 313 kts | 216° |
| 2026-05-04 18:07 | 52.35091 | 16.37234 | 14897 ft | 320 kts | 216° |
| 2026-05-04 18:07 | 52.33207 | 16.35185 | 15673 ft | 328 kts | 216° |
| 2026-05-04 18:07 | 52.31297 | 16.33110 | 16613 ft | 331 kts | 216° |
| 2026-05-04 18:07 | 52.29395 | 16.31046 | 17520 ft | 334 kts | 215° |